sensor_id;sensor_type;location;lat;lon;timestamp;temperature;humidity
23435;DHT22;11890;45.380;11.028;2022-08-21T00:01:17;24.50;99.90
23435;DHT22;11890;45.380;11.028;2022-08-21T00:03:51;24.50;99.90
23435;DHT22;11890;45.380;11.028;2022-08-21T00:06:25;24.40;99.90
23435;DHT22;11890;45.380;11.028;2022-08-21T00:08:53;24.30;99.90
23435;DHT22;11890;45.380;11.028;2022-08-21T00:11:20;24.30;99.90
23435;DHT22;11890;45.380;11.028;2022-08-21T00:13:47;24.30;99.90
23435;DHT22;11890;45.380;11.028;2022-08-21T00:16:17;24.20;99.90
23435;DHT22;11890;45.380;11.028;2022-08-21T00:18:45;24.20;99.90
23435;DHT22;11890;45.380;11.028;2022-08-21T00:21:17;24.20;99.90
23435;DHT22;11890;45.380;11.028;2022-08-21T00:23:45;24.20;99.90
23435;DHT22;11890;45.380;11.028;2022-08-21T00:26:12;24.30;99.90
23435;DHT22;11890;45.380;11.028;2022-08-21T00:28:42;24.20;99.90
23435;DHT22;11890;45.380;11.028;2022-08-21T00:31:42;24.20;99.90
23435;DHT22;11890;45.380;11.028;2022-08-21T00:34:19;24.20;99.90
23435;DHT22;11890;45.380;11.028;2022-08-21T00:36:47;24.20;99.90
23435;DHT22;11890;45.380;11.028;2022-08-21T00:39:16;24.10;99.90
23435;DHT22;11890;45.380;11.028;2022-08-21T00:41:44;24.10;99.90
23435;DHT22;11890;45.380;11.028;2022-08-21T00:44:16;24.00;99.90
23435;DHT22;11890;45.380;11.028;2022-08-21T00:46:55;24.00;99.90
23435;DHT22;11890;45.380;11.028;2022-08-21T00:49:22;24.00;99.90
23435;DHT22;11890;45.380;11.028;2022-08-21T00:51:54;24.00;99.90
23435;DHT22;11890;45.380;11.028;2022-08-21T00:54:26;24.00;99.90
23435;DHT22;11890;45.380;11.028;2022-08-21T00:57:00;24.10;99.90
23435;DHT22;11890;45.380;11.028;2022-08-21T00:59:55;24.00;99.90
23435;DHT22;11890;45.380;11.028;2022-08-21T01:02:36;24.00;99.90
23435;DHT22;11890;45.380;11.028;2022-08-21T01:05:09;24.00;99.90
23435;DHT22;11890;45.380;11.028;2022-08-21T01:07:50;24.00;99.90
23435;DHT22;11890;45.380;11.028;2022-08-21T01:10:39;24.00;99.90
23435;DHT22;11890;45.380;11.028;2022-08-21T01:13:08;24.00;99.90
23435;DHT22;11890;45.380;11.028;2022-08-21T01:16:08;23.90;99.90
23435;DHT22;11890;45.380;11.028;2022-08-21T01:18:37;23.90;99.90
23435;DHT22;11890;45.380;11.028;2022-08-21T01:21:19;23.90;99.90
23435;DHT22;11890;45.380;11.028;2022-08-21T01:23:50;23.90;99.90
23435;DHT22;11890;45.380;11.028;2022-08-21T01:26:22;23.90;99.90
23435;DHT22;11890;45.380;11.028;2022-08-21T01:29:14;23.90;99.90
23435;DHT22;11890;45.380;11.028;2022-08-21T01:32:08;23.90;99.90
23435;DHT22;11890;45.380;11.028;2022-08-21T01:34:43;23.90;99.90
23435;DHT22;11890;45.380;11.028;2022-08-21T01:37:11;23.90;99.90
23435;DHT22;11890;45.380;11.028;2022-08-21T01:39:40;23.80;99.90
23435;DHT22;11890;45.380;11.028;2022-08-21T01:42:12;23.80;99.90
23435;DHT22;11890;45.380;11.028;2022-08-21T01:44:42;23.70;99.90
23435;DHT22;11890;45.380;11.028;2022-08-21T01:47:14;23.70;99.90
23435;DHT22;11890;45.380;11.028;2022-08-21T01:49:48;23.70;99.90
23435;DHT22;11890;45.380;11.028;2022-08-21T01:52:15;23.60;99.90
23435;DHT22;11890;45.380;11.028;2022-08-21T01:54:43;23.60;99.90
23435;DHT22;11890;45.380;11.028;2022-08-21T01:57:11;23.60;99.90
23435;DHT22;11890;45.380;11.028;2022-08-21T01:59:39;23.60;99.90
23435;DHT22;11890;45.380;11.028;2022-08-21T02:02:10;23.60;99.90
23435;DHT22;11890;45.380;11.028;2022-08-21T02:04:39;23.60;99.90
23435;DHT22;11890;45.380;11.028;2022-08-21T02:07:10;23.60;99.90
23435;DHT22;11890;45.380;11.028;2022-08-21T02:09:43;23.60;99.90
23435;DHT22;11890;45.380;11.028;2022-08-21T02:12:13;23.60;99.90
23435;DHT22;11890;45.380;11.028;2022-08-21T02:14:40;23.60;99.90
23435;DHT22;11890;45.380;11.028;2022-08-21T02:17:07;23.60;99.90
23435;DHT22;11890;45.380;11.028;2022-08-21T02:19:39;23.50;99.90
23435;DHT22;11890;45.380;11.028;2022-08-21T02:22:11;23.60;99.90
23435;DHT22;11890;45.380;11.028;2022-08-21T02:24:39;23.60;99.90
23435;DHT22;11890;45.380;11.028;2022-08-21T02:27:25;23.60;99.90
23435;DHT22;11890;45.380;11.028;2022-08-21T02:29:56;23.60;99.90
23435;DHT22;11890;45.380;11.028;2022-08-21T02:32:40;23.60;99.90
23435;DHT22;11890;45.380;11.028;2022-08-21T02:35:40;23.70;99.90
23435;DHT22;11890;45.380;11.028;2022-08-21T02:38:29;23.70;99.90
23435;DHT22;11890;45.380;11.028;2022-08-21T02:40:58;23.70;99.90
23435;DHT22;11890;45.380;11.028;2022-08-21T02:43:29;23.70;99.90
23435;DHT22;11890;45.380;11.028;2022-08-21T02:46:07;23.70;99.90
23435;DHT22;11890;45.380;11.028;2022-08-21T02:48:36;23.60;99.90
23435;DHT22;11890;45.380;11.028;2022-08-21T02:51:05;23.60;99.90
23435;DHT22;11890;45.380;11.028;2022-08-21T02:53:36;23.70;99.90
23435;DHT22;11890;45.380;11.028;2022-08-21T02:56:08;23.60;99.90
23435;DHT22;11890;45.380;11.028;2022-08-21T02:58:46;23.60;99.90
23435;DHT22;11890;45.380;11.028;2022-08-21T03:01:20;23.60;99.90
23435;DHT22;11890;45.380;11.028;2022-08-21T03:03:49;23.60;99.90
23435;DHT22;11890;45.380;11.028;2022-08-21T03:06:22;23.60;99.90
23435;DHT22;11890;45.380;11.028;2022-08-21T03:08:49;23.60;99.90
23435;DHT22;11890;45.380;11.028;2022-08-21T03:11:20;23.60;99.90
23435;DHT22;11890;45.380;11.028;2022-08-21T03:13:48;23.60;99.90
23435;DHT22;11890;45.380;11.028;2022-08-21T03:16:15;23.60;99.90
23435;DHT22;11890;45.380;11.028;2022-08-21T03:18:43;23.60;99.90
23435;DHT22;11890;45.380;11.028;2022-08-21T03:21:10;23.60;99.90
23435;DHT22;11890;45.380;11.028;2022-08-21T03:23:39;23.60;99.90
23435;DHT22;11890;45.380;11.028;2022-08-21T03:26:10;23.60;99.90
23435;DHT22;11890;45.380;11.028;2022-08-21T03:28:39;23.60;99.90
23435;DHT22;11890;45.380;11.028;2022-08-21T03:31:06;23.60;99.90
23435;DHT22;11890;45.380;11.028;2022-08-21T03:33:34;23.60;99.90
23435;DHT22;11890;45.380;11.028;2022-08-21T03:36:10;23.60;99.90
23435;DHT22;11890;45.380;11.028;2022-08-21T03:38:39;23.60;99.90
23435;DHT22;11890;45.380;11.028;2022-08-21T03:41:08;23.60;99.90
23435;DHT22;11890;45.380;11.028;2022-08-21T03:43:35;23.60;99.90
23435;DHT22;11890;45.380;11.028;2022-08-21T03:46:06;23.60;99.90
23435;DHT22;11890;45.380;11.028;2022-08-21T03:48:36;23.60;99.90
23435;DHT22;11890;45.380;11.028;2022-08-21T03:51:04;23.60;99.90
23435;DHT22;11890;45.380;11.028;2022-08-21T03:53:32;23.50;99.90
23435;DHT22;11890;45.380;11.028;2022-08-21T03:56:05;23.40;99.90
23435;DHT22;11890;45.380;11.028;2022-08-21T03:58:36;23.40;99.90
23435;DHT22;11890;45.380;11.028;2022-08-21T04:01:07;23.50;99.90
23435;DHT22;11890;45.380;11.028;2022-08-21T04:03:39;23.50;99.90
23435;DHT22;11890;45.380;11.028;2022-08-21T04:06:07;23.50;99.90
23435;DHT22;11890;45.380;11.028;2022-08-21T04:08:38;23.50;99.90
23435;DHT22;11890;45.380;11.028;2022-08-21T04:11:05;23.40;99.90
23435;DHT22;11890;45.380;11.028;2022-08-21T04:13:33;23.40;99.90
23435;DHT22;11890;45.380;11.028;2022-08-21T04:16:14;23.40;99.90
23435;DHT22;11890;45.380;11.028;2022-08-21T04:18:42;23.40;99.90
23435;DHT22;11890;45.380;11.028;2022-08-21T04:21:17;23.40;99.90
23435;DHT22;11890;45.380;11.028;2022-08-21T04:23:50;23.40;99.90
23435;DHT22;11890;45.380;11.028;2022-08-21T04:26:17;23.40;99.90
23435;DHT22;11890;45.380;11.028;2022-08-21T04:28:45;23.40;99.90
23435;DHT22;11890;45.380;11.028;2022-08-21T04:31:12;23.40;99.90
23435;DHT22;11890;45.380;11.028;2022-08-21T04:33:40;23.40;99.90
23435;DHT22;11890;45.380;11.028;2022-08-21T04:36:08;23.40;99.90
23435;DHT22;11890;45.380;11.028;2022-08-21T04:38:38;23.40;99.90
23435;DHT22;11890;45.380;11.028;2022-08-21T04:41:11;23.40;99.90
23435;DHT22;11890;45.380;11.028;2022-08-21T04:43:39;23.50;99.90
23435;DHT22;11890;45.380;11.028;2022-08-21T04:46:06;23.40;99.90
23435;DHT22;11890;45.380;11.028;2022-08-21T04:48:54;23.40;99.90
23435;DHT22;11890;45.380;11.028;2022-08-21T04:51:46;23.40;99.90
23435;DHT22;11890;45.380;11.028;2022-08-21T04:54:21;23.40;99.90
23435;DHT22;11890;45.380;11.028;2022-08-21T04:56:53;23.40;99.90
23435;DHT22;11890;45.380;11.028;2022-08-21T04:59:30;23.40;99.90
23435;DHT22;11890;45.380;11.028;2022-08-21T05:02:03;23.40;99.90
23435;DHT22;11890;45.380;11.028;2022-08-21T05:04:37;23.40;99.90
23435;DHT22;11890;45.380;11.028;2022-08-21T05:07:09;23.40;99.90
23435;DHT22;11890;45.380;11.028;2022-08-21T05:09:38;23.50;99.90
23435;DHT22;11890;45.380;11.028;2022-08-21T05:12:05;23.50;99.90
23435;DHT22;11890;45.380;11.028;2022-08-21T05:14:34;23.50;99.90
23435;DHT22;11890;45.380;11.028;2022-08-21T05:17:05;23.60;99.90
23435;DHT22;11890;45.380;11.028;2022-08-21T05:19:32;23.60;99.90
23435;DHT22;11890;45.380;11.028;2022-08-21T05:22:00;23.70;99.90
23435;DHT22;11890;45.380;11.028;2022-08-21T05:24:28;23.70;99.90
23435;DHT22;11890;45.380;11.028;2022-08-21T05:26:55;23.70;99.90
23435;DHT22;11890;45.380;11.028;2022-08-21T05:29:23;23.70;99.90
23435;DHT22;11890;45.380;11.028;2022-08-21T05:32:13;23.70;99.90
23435;DHT22;11890;45.380;11.028;2022-08-21T05:34:41;23.70;99.90
23435;DHT22;11890;45.380;11.028;2022-08-21T05:37:11;23.80;99.90
23435;DHT22;11890;45.380;11.028;2022-08-21T05:39:40;23.80;99.90
23435;DHT22;11890;45.380;11.028;2022-08-21T05:42:27;23.90;99.90
23435;DHT22;11890;45.380;11.028;2022-08-21T05:44:55;23.90;99.90
23435;DHT22;11890;45.380;11.028;2022-08-21T05:47:22;24.00;99.90
23435;DHT22;11890;45.380;11.028;2022-08-21T05:49:54;24.00;99.90
23435;DHT22;11890;45.380;11.028;2022-08-21T05:52:22;24.10;99.90
23435;DHT22;11890;45.380;11.028;2022-08-21T05:54:50;24.10;99.90
23435;DHT22;11890;45.380;11.028;2022-08-21T05:57:17;24.20;99.90
23435;DHT22;11890;45.380;11.028;2022-08-21T05:59:45;24.20;99.90
23435;DHT22;11890;45.380;11.028;2022-08-21T06:02:12;24.20;99.90
23435;DHT22;11890;45.380;11.028;2022-08-21T06:04:40;24.30;99.90
23435;DHT22;11890;45.380;11.028;2022-08-21T06:07:09;24.30;99.90
23435;DHT22;11890;45.380;11.028;2022-08-21T06:09:36;24.30;99.90
23435;DHT22;11890;45.380;11.028;2022-08-21T06:12:10;24.30;99.90
23435;DHT22;11890;45.380;11.028;2022-08-21T06:14:38;24.30;99.90
23435;DHT22;11890;45.380;11.028;2022-08-21T06:17:08;24.40;99.90
23435;DHT22;11890;45.380;11.028;2022-08-21T06:19:36;24.40;99.90
23435;DHT22;11890;45.380;11.028;2022-08-21T06:22:06;24.50;99.90
23435;DHT22;11890;45.380;11.028;2022-08-21T06:24:33;24.40;99.90
23435;DHT22;11890;45.380;11.028;2022-08-21T06:27:23;24.50;99.90
23435;DHT22;11890;45.380;11.028;2022-08-21T06:29:55;24.60;99.90
23435;DHT22;11890;45.380;11.028;2022-08-21T06:32:24;24.60;99.90
23435;DHT22;11890;45.380;11.028;2022-08-21T06:34:52;24.60;99.90
23435;DHT22;11890;45.380;11.028;2022-08-21T06:37:19;24.70;99.90
23435;DHT22;11890;45.380;11.028;2022-08-21T06:39:47;24.80;99.90
23435;DHT22;11890;45.380;11.028;2022-08-21T06:42:16;24.80;99.90
23435;DHT22;11890;45.380;11.028;2022-08-21T06:44:44;24.90;99.90
23435;DHT22;11890;45.380;11.028;2022-08-21T06:47:11;24.90;99.90
23435;DHT22;11890;45.380;11.028;2022-08-21T06:49:39;25.00;99.90
23435;DHT22;11890;45.380;11.028;2022-08-21T06:52:11;25.00;99.90
23435;DHT22;11890;45.380;11.028;2022-08-21T06:54:59;25.10;99.90
23435;DHT22;11890;45.380;11.028;2022-08-21T06:57:50;25.20;99.90
23435;DHT22;11890;45.380;11.028;2022-08-21T07:00:19;25.20;99.90
23435;DHT22;11890;45.380;11.028;2022-08-21T07:02:47;25.20;99.90
23435;DHT22;11890;45.380;11.028;2022-08-21T07:05:15;25.20;99.90
23435;DHT22;11890;45.380;11.028;2022-08-21T07:07:49;25.30;99.90
23435;DHT22;11890;45.380;11.028;2022-08-21T07:10:39;25.30;99.90
23435;DHT22;11890;45.380;11.028;2022-08-21T07:13:10;25.40;99.90
23435;DHT22;11890;45.380;11.028;2022-08-21T07:16:03;25.40;99.90
23435;DHT22;11890;45.380;11.028;2022-08-21T07:18:37;25.50;99.90
23435;DHT22;11890;45.380;11.028;2022-08-21T07:21:32;25.50;99.90
23435;DHT22;11890;45.380;11.028;2022-08-21T07:24:07;25.60;99.90
23435;DHT22;11890;45.380;11.028;2022-08-21T07:26:35;25.60;99.90
23435;DHT22;11890;45.380;11.028;2022-08-21T07:29:03;25.70;99.90
23435;DHT22;11890;45.380;11.028;2022-08-21T07:31:31;25.70;99.90
23435;DHT22;11890;45.380;11.028;2022-08-21T07:34:02;25.80;99.90
23435;DHT22;11890;45.380;11.028;2022-08-21T07:36:30;25.80;99.90
23435;DHT22;11890;45.380;11.028;2022-08-21T07:39:01;25.90;99.90
23435;DHT22;11890;45.380;11.028;2022-08-21T07:41:30;26.00;99.90
23435;DHT22;11890;45.380;11.028;2022-08-21T07:43:59;26.10;99.90
23435;DHT22;11890;45.380;11.028;2022-08-21T07:46:27;26.20;99.90
23435;DHT22;11890;45.380;11.028;2022-08-21T07:48:55;26.20;99.90
23435;DHT22;11890;45.380;11.028;2022-08-21T07:51:26;26.20;99.90
23435;DHT22;11890;45.380;11.028;2022-08-21T07:53:57;26.30;99.90
23435;DHT22;11890;45.380;11.028;2022-08-21T07:56:29;26.40;99.90
23435;DHT22;11890;45.380;11.028;2022-08-21T07:58:57;26.40;99.90
23435;DHT22;11890;45.380;11.028;2022-08-21T08:01:25;26.50;99.90
23435;DHT22;11890;45.380;11.028;2022-08-21T08:03:53;26.60;99.90
23435;DHT22;11890;45.380;11.028;2022-08-21T08:06:23;26.70;99.90
23435;DHT22;11890;45.380;11.028;2022-08-21T08:08:51;26.70;99.90
23435;DHT22;11890;45.380;11.028;2022-08-21T08:11:19;26.80;99.90
23435;DHT22;11890;45.380;11.028;2022-08-21T08:13:48;26.80;99.90
23435;DHT22;11890;45.380;11.028;2022-08-21T08:16:17;27.00;99.90
23435;DHT22;11890;45.380;11.028;2022-08-21T08:18:53;27.00;99.90
23435;DHT22;11890;45.380;11.028;2022-08-21T08:21:24;27.10;99.90
23435;DHT22;11890;45.380;11.028;2022-08-21T08:23:51;27.20;99.90
23435;DHT22;11890;45.380;11.028;2022-08-21T08:26:19;27.30;99.90
23435;DHT22;11890;45.380;11.028;2022-08-21T08:28:47;27.30;99.90
23435;DHT22;11890;45.380;11.028;2022-08-21T08:31:15;27.40;99.90
23435;DHT22;11890;45.380;11.028;2022-08-21T08:33:42;27.50;99.90
23435;DHT22;11890;45.380;11.028;2022-08-21T08:36:17;27.50;99.90
23435;DHT22;11890;45.380;11.028;2022-08-21T08:38:47;27.60;99.90
23435;DHT22;11890;45.380;11.028;2022-08-21T08:41:25;27.60;99.90
23435;DHT22;11890;45.380;11.028;2022-08-21T08:44:03;27.70;99.90
23435;DHT22;11890;45.380;11.028;2022-08-21T08:46:39;27.80;99.90
23435;DHT22;11890;45.380;11.028;2022-08-21T08:49:19;27.90;99.90
23435;DHT22;11890;45.380;11.028;2022-08-21T08:54:38;28.00;99.90
23435;DHT22;11890;45.380;11.028;2022-08-21T08:57:23;28.10;99.90
23435;DHT22;11890;45.380;11.028;2022-08-21T09:00:01;28.10;99.90
23435;DHT22;11890;45.380;11.028;2022-08-21T09:02:53;28.20;99.90
23435;DHT22;11890;45.380;11.028;2022-08-21T09:05:40;28.30;99.90
23435;DHT22;11890;45.380;11.028;2022-08-21T09:11:48;28.50;99.90
23435;DHT22;11890;45.380;11.028;2022-08-21T09:15:03;28.60;99.60
23435;DHT22;11890;45.380;11.028;2022-08-21T09:23:10;28.80;98.60
23435;DHT22;11890;45.380;11.028;2022-08-21T09:26:05;28.90;98.70
23435;DHT22;11890;45.380;11.028;2022-08-21T09:28:37;28.90;98.90
23435;DHT22;11890;45.380;11.028;2022-08-21T09:31:28;28.90;98.80
23435;DHT22;11890;45.380;11.028;2022-08-21T09:34:08;29.00;99.30
23435;DHT22;11890;45.380;11.028;2022-08-21T09:39:07;29.10;98.70
23435;DHT22;11890;45.380;11.028;2022-08-21T09:41:37;29.20;99.40
23435;DHT22;11890;45.380;11.028;2022-08-21T09:44:07;29.20;98.80
23435;DHT22;11890;45.380;11.028;2022-08-21T09:46:51;29.30;99.50
23435;DHT22;11890;45.380;11.028;2022-08-21T09:50:18;29.40;99.00
23435;DHT22;11890;45.380;11.028;2022-08-21T09:56:36;29.60;99.60
23435;DHT22;11890;45.380;11.028;2022-08-21T10:00:18;29.70;97.90
23435;DHT22;11890;45.380;11.028;2022-08-21T10:03:28;29.80;98.90
23435;DHT22;11890;45.380;11.028;2022-08-21T10:06:28;29.90;98.10
23435;DHT22;11890;45.380;11.028;2022-08-21T10:09:36;29.90;97.10
23435;DHT22;11890;45.380;11.028;2022-08-21T10:12:20;30.00;98.70
23435;DHT22;11890;45.380;11.028;2022-08-21T10:15:15;30.10;97.80
23435;DHT22;11890;45.380;11.028;2022-08-21T10:18:03;30.20;97.00
23435;DHT22;11890;45.380;11.028;2022-08-21T10:20:44;30.30;96.10
23435;DHT22;11890;45.380;11.028;2022-08-21T10:26:26;30.30;96.80
23435;DHT22;11890;45.380;11.028;2022-08-21T10:48:36;31.00;94.40
23435;DHT22;11890;45.380;11.028;2022-08-21T10:51:22;31.10;94.50
23435;DHT22;11890;45.380;11.028;2022-08-21T10:56:54;31.30;89.00
23435;DHT22;11890;45.380;11.028;2022-08-21T10:59:44;31.50;87.20
23435;DHT22;11890;45.380;11.028;2022-08-21T11:02:35;31.60;90.70
23435;DHT22;11890;45.380;11.028;2022-08-21T11:05:25;31.70;92.00
23435;DHT22;11890;45.380;11.028;2022-08-21T11:08:05;31.80;92.30
23435;DHT22;11890;45.380;11.028;2022-08-21T11:10:38;31.80;91.50
23435;DHT22;11890;45.380;11.028;2022-08-21T11:13:47;31.70;91.70
23435;DHT22;11890;45.380;11.028;2022-08-21T11:16:45;31.80;92.90
23435;DHT22;11890;45.380;11.028;2022-08-21T11:19:33;31.90;92.40
23435;DHT22;11890;45.380;11.028;2022-08-21T11:22:39;31.90;92.60
23435;DHT22;11890;45.380;11.028;2022-08-21T11:25:40;32.00;91.50
23435;DHT22;11890;45.380;11.028;2022-08-21T11:28:51;32.10;92.20
23435;DHT22;11890;45.380;11.028;2022-08-21T11:45:56;32.40;91.20
23435;DHT22;11890;45.380;11.028;2022-08-21T11:51:22;32.40;90.90
23435;DHT22;11890;45.380;11.028;2022-08-21T11:57:01;32.40;90.00
23435;DHT22;11890;45.380;11.028;2022-08-21T12:00:05;32.30;88.60
23435;DHT22;11890;45.380;11.028;2022-08-21T12:02:58;32.40;88.70
23435;DHT22;11890;45.380;11.028;2022-08-21T12:05:40;32.50;89.60
23435;DHT22;11890;45.380;11.028;2022-08-21T12:08:36;32.60;86.90
23435;DHT22;11890;45.380;11.028;2022-08-21T12:12:06;32.70;85.10
23435;DHT22;11890;45.380;11.028;2022-08-21T12:17:37;32.70;82.40
23435;DHT22;11890;45.380;11.028;2022-08-21T12:23:43;32.70;84.00
23435;DHT22;11890;45.380;11.028;2022-08-21T12:26:36;32.80;81.70
23435;DHT22;11890;45.380;11.028;2022-08-21T12:31:57;33.00;78.90
23435;DHT22;11890;45.380;11.028;2022-08-21T12:34:37;33.00;81.50
23435;DHT22;11890;45.380;11.028;2022-08-21T12:37:39;32.90;78.40
23435;DHT22;11890;45.380;11.028;2022-08-21T12:43:00;32.60;82.70
23435;DHT22;11890;45.380;11.028;2022-08-21T12:45:40;32.40;78.20
23435;DHT22;11890;45.380;11.028;2022-08-21T12:48:51;32.30;74.00
23435;DHT22;11890;45.380;11.028;2022-08-21T12:51:42;32.30;76.80
23435;DHT22;11890;45.380;11.028;2022-08-21T12:54:44;32.30;81.50
23435;DHT22;11890;45.380;11.028;2022-08-21T12:57:29;32.30;80.00
23435;DHT22;11890;45.380;11.028;2022-08-21T13:00:20;32.40;80.70
23435;DHT22;11890;45.380;11.028;2022-08-21T13:02:53;32.40;80.50
23435;DHT22;11890;45.380;11.028;2022-08-21T13:05:50;32.40;82.20
23435;DHT22;11890;45.380;11.028;2022-08-21T13:08:37;32.30;75.20
23435;DHT22;11890;45.380;11.028;2022-08-21T13:11:09;32.30;78.70
23435;DHT22;11890;45.380;11.028;2022-08-21T13:14:04;32.30;79.50
23435;DHT22;11890;45.380;11.028;2022-08-21T13:16:32;32.30;78.50
23435;DHT22;11890;45.380;11.028;2022-08-21T13:19:25;32.40;77.90
23435;DHT22;11890;45.380;11.028;2022-08-21T13:21:55;32.40;76.30
23435;DHT22;11890;45.380;11.028;2022-08-21T13:24:46;32.40;75.10
23435;DHT22;11890;45.380;11.028;2022-08-21T13:27:27;32.50;75.90
23435;DHT22;11890;45.380;11.028;2022-08-21T13:30:21;32.60;73.10
23435;DHT22;11890;45.380;11.028;2022-08-21T13:33:10;32.60;72.80
23435;DHT22;11890;45.380;11.028;2022-08-21T13:36:27;32.60;68.10
23435;DHT22;11890;45.380;11.028;2022-08-21T13:39:15;32.50;70.20
23435;DHT22;11890;45.380;11.028;2022-08-21T13:42:21;32.40;70.20
23435;DHT22;11890;45.380;11.028;2022-08-21T13:44:59;32.30;71.10
23435;DHT22;11890;45.380;11.028;2022-08-21T13:47:27;32.20;68.70
23435;DHT22;11890;45.380;11.028;2022-08-21T13:50:11;32.20;67.80
23435;DHT22;11890;45.380;11.028;2022-08-21T13:53:02;32.20;72.20
23435;DHT22;11890;45.380;11.028;2022-08-21T13:55:43;32.30;69.90
23435;DHT22;11890;45.380;11.028;2022-08-21T13:58:23;32.20;72.10
23435;DHT22;11890;45.380;11.028;2022-08-21T14:01:02;32.20;75.20
23435;DHT22;11890;45.380;11.028;2022-08-21T14:03:42;32.20;72.90
23435;DHT22;11890;45.380;11.028;2022-08-21T14:06:54;32.20;73.40
23435;DHT22;11890;45.380;11.028;2022-08-21T14:09:32;32.30;76.50
23435;DHT22;11890;45.380;11.028;2022-08-21T14:15:13;32.30;72.90
23435;DHT22;11890;45.380;11.028;2022-08-21T14:17:41;32.20;72.60
23435;DHT22;11890;45.380;11.028;2022-08-21T14:20:30;32.20;72.90
23435;DHT22;11890;45.380;11.028;2022-08-21T14:23:01;32.10;70.90
23435;DHT22;11890;45.380;11.028;2022-08-21T14:25:44;32.20;71.40
23435;DHT22;11890;45.380;11.028;2022-08-21T14:28:24;32.10;73.20
23435;DHT22;11890;45.380;11.028;2022-08-21T14:31:51;32.00;71.50
23435;DHT22;11890;45.380;11.028;2022-08-21T14:34:21;32.00;71.40
23435;DHT22;11890;45.380;11.028;2022-08-21T14:36:51;31.90;70.40
23435;DHT22;11890;45.380;11.028;2022-08-21T14:39:42;31.90;73.80
23435;DHT22;11890;45.380;11.028;2022-08-21T14:42:13;31.90;73.80
23435;DHT22;11890;45.380;11.028;2022-08-21T14:44:40;31.80;69.60
23435;DHT22;11890;45.380;11.028;2022-08-21T14:47:09;31.70;69.90
23435;DHT22;11890;45.380;11.028;2022-08-21T14:49:36;31.70;70.90
23435;DHT22;11890;45.380;11.028;2022-08-21T14:52:09;31.70;70.70
23435;DHT22;11890;45.380;11.028;2022-08-21T14:54:40;31.60;71.20
23435;DHT22;11890;45.380;11.028;2022-08-21T14:57:11;31.60;72.30
23435;DHT22;11890;45.380;11.028;2022-08-21T14:59:40;31.60;73.10
23435;DHT22;11890;45.380;11.028;2022-08-21T15:02:08;31.60;70.70
23435;DHT22;11890;45.380;11.028;2022-08-21T15:04:37;31.60;70.20
23435;DHT22;11890;45.380;11.028;2022-08-21T15:07:05;31.60;71.70
23435;DHT22;11890;45.380;11.028;2022-08-21T15:09:33;31.50;72.30
23435;DHT22;11890;45.380;11.028;2022-08-21T15:12:02;31.50;73.60
23435;DHT22;11890;45.380;11.028;2022-08-21T15:14:33;31.50;71.40
23435;DHT22;11890;45.380;11.028;2022-08-21T15:17:02;31.60;71.10
23435;DHT22;11890;45.380;11.028;2022-08-21T15:19:31;31.60;71.60
23435;DHT22;11890;45.380;11.028;2022-08-21T15:21:59;31.60;71.90
23435;DHT22;11890;45.380;11.028;2022-08-21T15:24:27;31.60;72.80
23435;DHT22;11890;45.380;11.028;2022-08-21T15:26:58;31.60;71.70
23435;DHT22;11890;45.380;11.028;2022-08-21T15:29:26;31.60;71.70
23435;DHT22;11890;45.380;11.028;2022-08-21T15:32:43;31.60;72.10
23435;DHT22;11890;45.380;11.028;2022-08-21T15:35:13;31.60;74.10
23435;DHT22;11890;45.380;11.028;2022-08-21T15:37:40;31.60;71.30
23435;DHT22;11890;45.380;11.028;2022-08-21T15:40:09;31.60;73.70
23435;DHT22;11890;45.380;11.028;2022-08-21T15:42:38;31.50;70.80
23435;DHT22;11890;45.380;11.028;2022-08-21T15:45:42;31.40;71.50
23435;DHT22;11890;45.380;11.028;2022-08-21T15:48:12;31.40;72.00
23435;DHT22;11890;45.380;11.028;2022-08-21T15:50:40;31.30;70.90
23435;DHT22;11890;45.380;11.028;2022-08-21T15:53:31;31.30;72.10
23435;DHT22;11890;45.380;11.028;2022-08-21T15:56:23;31.30;72.70
23435;DHT22;11890;45.380;11.028;2022-08-21T15:59:01;31.30;72.50
23435;DHT22;11890;45.380;11.028;2022-08-21T16:01:52;31.20;72.70
23435;DHT22;11890;45.380;11.028;2022-08-21T16:05:00;31.20;74.10
23435;DHT22;11890;45.380;11.028;2022-08-21T16:07:31;31.20;75.40
23435;DHT22;11890;45.380;11.028;2022-08-21T16:09:59;31.10;73.90
23435;DHT22;11890;45.380;11.028;2022-08-21T16:12:30;31.10;76.30
23435;DHT22;11890;45.380;11.028;2022-08-21T16:15:35;31.10;76.60
23435;DHT22;11890;45.380;11.028;2022-08-21T16:18:24;31.10;75.80
23435;DHT22;11890;45.380;11.028;2022-08-21T16:21:12;31.10;76.00
23435;DHT22;11890;45.380;11.028;2022-08-21T16:23:40;31.10;75.50
23435;DHT22;11890;45.380;11.028;2022-08-21T16:26:30;31.00;76.00
23435;DHT22;11890;45.380;11.028;2022-08-21T16:29:01;31.00;76.20
23435;DHT22;11890;45.380;11.028;2022-08-21T16:31:47;31.00;75.50
23435;DHT22;11890;45.380;11.028;2022-08-21T16:34:30;31.00;76.10
23435;DHT22;11890;45.380;11.028;2022-08-21T16:36:58;31.00;76.40
23435;DHT22;11890;45.380;11.028;2022-08-21T16:39:26;30.90;77.40
23435;DHT22;11890;45.380;11.028;2022-08-21T16:41:53;30.90;76.40
23435;DHT22;11890;45.380;11.028;2022-08-21T16:44:25;30.90;76.70
23435;DHT22;11890;45.380;11.028;2022-08-21T16:46:56;30.90;78.30
23435;DHT22;11890;45.380;11.028;2022-08-21T16:49:24;30.80;78.50
23435;DHT22;11890;45.380;11.028;2022-08-21T16:51:53;30.80;78.30
23435;DHT22;11890;45.380;11.028;2022-08-21T16:54:21;30.70;78.10
23435;DHT22;11890;45.380;11.028;2022-08-21T16:56:51;30.80;77.80
23435;DHT22;11890;45.380;11.028;2022-08-21T16:59:20;30.70;77.40
23435;DHT22;11890;45.380;11.028;2022-08-21T17:01:54;30.80;77.40
23435;DHT22;11890;45.380;11.028;2022-08-21T17:04:27;30.70;79.00
23435;DHT22;11890;45.380;11.028;2022-08-21T17:07:02;30.70;78.70
23435;DHT22;11890;45.380;11.028;2022-08-21T17:09:30;30.70;77.70
23435;DHT22;11890;45.380;11.028;2022-08-21T17:12:34;30.70;78.50
23435;DHT22;11890;45.380;11.028;2022-08-21T17:15:43;30.60;80.30
23435;DHT22;11890;45.380;11.028;2022-08-21T17:18:30;30.60;80.60
23435;DHT22;11890;45.380;11.028;2022-08-21T17:21:03;30.60;80.80
23435;DHT22;11890;45.380;11.028;2022-08-21T17:23:35;30.50;79.80
23435;DHT22;11890;45.380;11.028;2022-08-21T17:26:06;30.60;78.50
23435;DHT22;11890;45.380;11.028;2022-08-21T17:28:39;30.50;78.70
23435;DHT22;11890;45.380;11.028;2022-08-21T17:31:08;30.50;79.00
23435;DHT22;11890;45.380;11.028;2022-08-21T17:33:55;30.40;81.70